Time,TemperatureF,DewpointF,PressureIn,WindDirection,WindDirectionDegrees,WindSpeedMPH,WindSpeedGustMPH,Humidity,HourlyPrecipIn,Conditions,Clouds,dailyrainin,SolarRadiationWatts/m^2,SoftwareType,DateUTC
2013-01-23 00:12:00,34.0,5.0,-100.00,SSE,161,7.0,10.0,29,0.00,,,0.00,0.000000,,2013-01-23 07:12:00,
2013-01-23 00:22:00,34.0,5.0,-100.00,SSE,161,7.0,10.0,29,0.00,,,0.00,0.000000,,2013-01-23 07:22:00,
2013-01-23 00:33:00,34.0,5.0,-100.00,SSE,161,7.0,10.0,29,0.00,,,0.00,0.000000,,2013-01-23 07:33:00,
2013-01-23 00:42:00,34.0,5.0,-100.00,SSE,161,7.0,10.0,29,0.00,,,0.00,0.000000,,2013-01-23 07:42:00,
2013-01-23 00:51:00,32.0,5.0,-100.00,SSE,168,5.0,9.0,31,0.00,,,0.00,0.000000,,2013-01-23 07:51:00,
2013-01-23 01:22:00,32.0,5.0,-100.00,SSE,168,5.0,9.0,31,0.00,,,0.00,0.000000,,2013-01-23 08:22:00,
2013-01-23 01:33:00,32.0,5.0,-100.00,SSE,168,5.0,9.0,31,0.00,,,0.00,0.000000,,2013-01-23 08:33:00,
2013-01-23 01:42:00,32.0,5.0,-100.00,SSE,168,5.0,9.0,31,0.00,,,0.00,0.000000,,2013-01-23 08:42:00,
2013-01-23 01:51:00,32.0,6.0,-100.00,SSE,157,7.0,9.0,33,0.00,,,0.00,0.000000,,2013-01-23 08:51:00,
2013-01-23 02:12:00,32.0,6.0,-100.00,SSE,157,7.0,9.0,33,0.00,,,0.00,0.000000,,2013-01-23 09:12:00,
2013-01-23 02:22:00,32.0,6.0,-100.00,SSE,157,7.0,9.0,33,0.00,,,0.00,0.000000,,2013-01-23 09:22:00,
2013-01-23 02:32:00,32.0,6.0,-100.00,SSE,157,7.0,9.0,33,0.00,,,0.00,0.000000,,2013-01-23 09:32:00,
2013-01-23 02:43:00,32.0,6.0,-100.00,SSE,157,7.0,9.0,33,0.00,,,0.00,0.000000,,2013-01-23 09:43:00,
2013-01-23 02:51:00,34.0,8.0,-100.00,SSE,157,6.0,9.0,33,0.00,,,0.00,0.000000,,2013-01-23 09:51:00,
2013-01-23 03:12:00,34.0,8.0,-100.00,SSE,157,6.0,9.0,33,0.00,,,0.00,0.000000,,2013-01-23 10:12:00,
2013-01-23 03:23:00,34.0,8.0,-100.00,SSE,157,6.0,9.0,33,0.00,,,0.00,0.000000,,2013-01-23 10:23:00,
2013-01-23 03:33:00,34.0,8.0,-100.00,SSE,157,6.0,9.0,33,0.00,,,0.00,0.000000,,2013-01-23 10:33:00,
2013-01-23 03:43:00,34.0,8.0,-100.00,SSE,157,6.0,9.0,33,0.00,,,0.00,0.000000,,2013-01-23 10:43:00,
2013-01-23 03:51:00,34.0,9.0,-100.00,SSE,150,2.0,7.0,34,0.00,,,0.00,0.000000,,2013-01-23 10:51:00,
2013-01-23 04:12:00,34.0,9.0,-100.00,SSE,150,2.0,7.0,34,0.00,,,0.00,0.000000,,2013-01-23 11:12:00,
2013-01-23 04:23:00,34.0,9.0,-100.00,SSE,150,2.0,7.0,34,0.00,,,0.00,0.000000,,2013-01-23 11:23:00,
2013-01-23 04:33:00,34.0,9.0,-100.00,SSE,150,2.0,7.0,34,0.00,,,0.00,0.000000,,2013-01-23 11:33:00,
2013-01-23 04:43:00,34.0,9.0,-100.00,SSE,150,2.0,7.0,34,0.00,,,0.00,0.000000,,2013-01-23 11:43:00,
2013-01-23 04:51:00,32.0,8.0,-100.00,SSE,147,0.0,5.0,36,0.00,,,0.00,0.000000,,2013-01-23 11:51:00,
2013-01-23 05:12:00,32.0,8.0,-100.00,SSE,147,0.0,5.0,36,0.00,,,0.00,0.000000,,2013-01-23 12:12:00,
2013-01-23 05:22:00,32.0,8.0,-100.00,SSE,147,0.0,5.0,36,0.00,,,0.00,0.000000,,2013-01-23 12:22:00,
2013-01-23 05:33:00,32.0,8.0,-100.00,SSE,147,0.0,5.0,36,0.00,,,0.00,0.000000,,2013-01-23 12:33:00,
2013-01-23 05:43:00,32.0,8.0,-100.00,SSE,147,0.0,5.0,36,0.00,,,0.00,0.000000,,2013-01-23 12:43:00,
2013-01-23 05:51:00,33.0,8.0,-100.00,ESE,105,0.0,4.0,34,0.00,,,0.00,0.000000,,2013-01-23 12:51:00,
2013-01-23 06:13:00,33.0,8.0,-100.00,ESE,105,0.0,4.0,34,0.00,,,0.00,0.000000,,2013-01-23 13:13:00,
2013-01-23 06:23:00,33.0,8.0,-100.00,ESE,105,0.0,4.0,34,0.00,,,0.00,0.000000,,2013-01-23 13:23:00,
2013-01-23 06:33:00,33.0,8.0,-100.00,ESE,105,0.0,4.0,34,0.00,,,0.00,0.000000,,2013-01-23 13:33:00,
2013-01-23 06:42:00,33.0,8.0,-100.00,ESE,105,0.0,4.0,34,0.00,,,0.00,0.000000,,2013-01-23 13:42:00,
2013-01-23 07:51:00,28.0,9.0,-100.00,NNE,20,1.0,5.0,44,-99.99,,,0.00,2.000000,,2013-01-23 14:51:00,
2013-01-23 08:12:00,28.0,9.0,-100.00,NNE,20,1.0,5.0,44,-99.99,,,0.00,2.000000,,2013-01-23 15:12:00,
2013-01-23 08:23:00,28.0,9.0,-100.00,NNE,20,1.0,5.0,44,-99.99,,,0.00,2.000000,,2013-01-23 15:23:00,
2013-01-23 08:33:00,28.0,9.0,-100.00,NNE,20,1.0,5.0,44,-99.99,,,0.00,2.000000,,2013-01-23 15:33:00,
2013-01-23 08:43:00,28.0,9.0,-100.00,NNE,20,1.0,5.0,44,-99.99,,,0.00,2.000000,,2013-01-23 15:43:00,
2013-01-23 08:51:00,28.0,10.0,-100.00,SE,135,0.0,4.0,47,0.00,,,0.00,42.000000,,2013-01-23 15:51:00,
2013-01-23 09:23:00,28.0,10.0,-100.00,SE,135,0.0,4.0,47,0.00,,,0.00,42.000000,,2013-01-23 16:23:00,
2013-01-23 09:33:00,28.0,10.0,-100.00,SE,135,0.0,4.0,47,0.00,,,0.00,42.000000,,2013-01-23 16:33:00,
2013-01-23 09:42:00,28.0,10.0,-100.00,SE,135,0.0,4.0,47,0.00,,,0.00,42.000000,,2013-01-23 16:42:00,
2013-01-23 09:51:00,30.0,11.0,-100.00,ESE,106,4.0,7.0,45,0.00,,,0.00,119.000000,,2013-01-23 16:51:00,
2013-01-23 10:23:00,30.0,11.0,-100.00,ESE,106,4.0,7.0,45,0.00,,,0.00,119.000000,,2013-01-23 17:23:00,
2013-01-23 10:33:00,30.0,11.0,-100.00,ESE,106,4.0,7.0,45,0.00,,,0.00,119.000000,,2013-01-23 17:33:00,
2013-01-23 10:42:00,30.0,11.0,-100.00,ESE,106,4.0,7.0,45,0.00,,,0.00,119.000000,,2013-01-23 17:42:00,
2013-01-23 10:51:00,29.0,14.0,-100.00,SE,133,4.0,9.0,52,0.00,,,0.00,181.000000,,2013-01-23 17:51:00,
2013-01-23 11:12:00,29.0,14.0,-100.00,SE,133,4.0,9.0,52,0.00,,,0.00,181.000000,,2013-01-23 18:12:00,
2013-01-23 11:23:00,29.0,14.0,-100.00,SE,133,4.0,9.0,52,0.00,,,0.00,181.000000,,2013-01-23 18:23:00,
2013-01-23 11:33:00,29.0,14.0,-100.00,SE,133,4.0,9.0,52,0.00,,,0.00,181.000000,,2013-01-23 18:33:00,
2013-01-23 11:43:00,29.0,14.0,-100.00,SE,133,4.0,9.0,52,0.00,,,0.00,181.000000,,2013-01-23 18:43:00,
2013-01-23 11:51:00,33.0,14.0,-100.00,SE,135,4.0,7.0,46,0.00,,,0.00,233.000000,,2013-01-23 18:51:00,
2013-01-23 12:13:00,33.0,14.0,-100.00,SE,135,4.0,7.0,46,0.00,,,0.00,233.000000,,2013-01-23 19:13:00,
2013-01-23 12:23:00,33.0,14.0,-100.00,SE,135,4.0,7.0,46,0.00,,,0.00,233.000000,,2013-01-23 19:23:00,
2013-01-23 12:33:00,33.0,14.0,-100.00,SE,135,4.0,7.0,46,0.00,,,0.00,233.000000,,2013-01-23 19:33:00,
2013-01-23 12:43:00,33.0,14.0,-100.00,SE,135,4.0,7.0,46,0.00,,,0.00,233.000000,,2013-01-23 19:43:00,
2013-01-23 12:51:00,33.0,16.0,-100.00,ENE,72,6.0,9.0,49,0.00,,,0.00,244.000000,,2013-01-23 19:51:00,
2013-01-23 13:23:00,33.0,16.0,-100.00,ENE,72,6.0,9.0,49,0.00,,,0.00,244.000000,,2013-01-23 20:23:00,
2013-01-23 13:33:00,33.0,16.0,-100.00,ENE,72,6.0,9.0,49,0.00,,,0.00,244.000000,,2013-01-23 20:33:00,
2013-01-23 13:43:00,33.0,16.0,-100.00,ENE,72,6.0,9.0,49,0.00,,,0.00,244.000000,,2013-01-23 20:43:00,
2013-01-23 13:51:00,32.0,16.0,-100.00,East,92,5.0,8.0,51,0.00,,,0.00,241.000000,,2013-01-23 20:51:00,
2013-01-23 14:12:00,32.0,16.0,-100.00,East,92,5.0,8.0,51,0.00,,,0.00,241.000000,,2013-01-23 21:12:00,
2013-01-23 14:23:00,32.0,16.0,-100.00,East,92,5.0,8.0,51,0.00,,,0.00,241.000000,,2013-01-23 21:23:00,
2013-01-23 14:33:00,32.0,16.0,-100.00,East,92,5.0,8.0,51,0.00,,,0.00,241.000000,,2013-01-23 21:33:00,
2013-01-23 14:42:00,32.0,16.0,-100.00,East,92,5.0,8.0,51,0.00,,,0.00,241.000000,,2013-01-23 21:42:00,
2013-01-23 14:51:00,30.0,16.0,-100.00,East,101,10.0,13.0,55,0.00,,,-99.99,130.000000,,2013-01-23 21:51:00,
2013-01-23 15:23:00,30.0,16.0,-100.00,East,101,10.0,13.0,55,0.00,,,-99.99,130.000000,,2013-01-23 22:23:00,
2013-01-23 15:33:00,30.0,16.0,-100.00,East,101,10.0,13.0,55,0.00,,,-99.99,130.000000,,2013-01-23 22:33:00,
2013-01-23 15:42:00,30.0,16.0,-100.00,East,101,10.0,13.0,55,0.00,,,-99.99,130.000000,,2013-01-23 22:42:00,
2013-01-23 15:51:00,29.0,17.0,-100.00,SE,128,8.0,14.0,60,0.00,,,0.00,56.000000,,2013-01-23 22:51:00,
2013-01-23 16:13:00,29.0,17.0,-100.00,SE,128,8.0,14.0,60,0.00,,,0.00,56.000000,,2013-01-23 23:13:00,
2013-01-23 16:23:00,29.0,17.0,-100.00,SE,128,8.0,14.0,60,0.00,,,0.00,56.000000,,2013-01-23 23:23:00,
2013-01-23 16:33:00,29.0,17.0,-100.00,SE,128,8.0,14.0,60,0.00,,,0.00,56.000000,,2013-01-23 23:33:00,
2013-01-23 16:43:00,29.0,17.0,-100.00,SE,128,8.0,14.0,60,0.00,,,0.00,56.000000,,2013-01-23 23:43:00,
2013-01-23 16:51:00,27.0,16.0,-100.00,SE,124,8.0,13.0,64,0.00,,,0.00,19.000000,,2013-01-23 23:51:00,
2013-01-23 17:12:00,27.0,16.0,-100.00,SE,124,8.0,13.0,64,0.00,,,0.00,19.000000,,2013-01-24 00:12:00,
2013-01-23 17:22:00,27.0,16.0,-100.00,SE,124,8.0,13.0,64,0.00,,,0.00,19.000000,,2013-01-24 00:22:00,
2013-01-23 17:32:00,27.0,16.0,-100.00,SE,124,8.0,13.0,64,0.00,,,0.00,19.000000,,2013-01-24 00:32:00,
2013-01-23 17:42:00,27.0,16.0,-100.00,SE,124,8.0,13.0,64,0.00,,,0.00,19.000000,,2013-01-24 00:42:00,
2013-01-23 17:51:00,31.0,19.0,-100.00,SE,139,11.0,16.0,60,0.00,,,0.00,0.000000,,2013-01-24 00:51:00,
2013-01-23 18:23:00,31.0,19.0,-100.00,SE,139,11.0,16.0,60,0.00,,,0.00,0.000000,,2013-01-24 01:23:00,
2013-01-23 18:33:00,31.0,19.0,-100.00,SE,139,11.0,16.0,60,0.00,,,0.00,0.000000,,2013-01-24 01:33:00,
2013-01-23 18:42:00,31.0,19.0,-100.00,SE,139,11.0,16.0,60,0.00,,,0.00,0.000000,,2013-01-24 01:42:00,
2013-01-23 18:51:00,30.0,17.0,-100.00,SSE,151,12.0,17.0,58,0.00,,,0.00,0.000000,,2013-01-24 01:51:00,
2013-01-23 19:12:00,30.0,17.0,-100.00,SSE,151,12.0,17.0,58,0.00,,,0.00,0.000000,,2013-01-24 02:12:00,
2013-01-23 19:22:00,30.0,17.0,-100.00,SSE,151,12.0,17.0,58,0.00,,,0.00,0.000000,,2013-01-24 02:22:00,
2013-01-23 19:33:00,30.0,17.0,-100.00,SSE,151,12.0,17.0,58,0.00,,,0.00,0.000000,,2013-01-24 02:33:00,
2013-01-23 19:42:00,30.0,17.0,-100.00,SSE,151,12.0,17.0,58,0.00,,,0.00,0.000000,,2013-01-24 02:42:00,
2013-01-23 19:51:00,31.0,16.0,-100.00,SSE,165,17.0,23.0,53,0.00,,,0.00,0.000000,,2013-01-24 02:51:00,
2013-01-23 20:12:00,31.0,16.0,-100.00,SSE,165,17.0,23.0,53,0.00,,,0.00,0.000000,,2013-01-24 03:12:00,
2013-01-23 20:22:00,31.0,16.0,-100.00,SSE,165,17.0,23.0,53,0.00,,,0.00,0.000000,,2013-01-24 03:22:00,
2013-01-23 20:33:00,31.0,16.0,-100.00,SSE,165,17.0,23.0,53,0.00,,,0.00,0.000000,,2013-01-24 03:33:00,
2013-01-23 20:43:00,31.0,16.0,-100.00,SSE,165,17.0,23.0,53,0.00,,,0.00,0.000000,,2013-01-24 03:43:00,
2013-01-23 20:51:00,29.0,15.0,-100.00,SSE,161,16.0,26.0,56,0.00,,,0.00,0.000000,,2013-01-24 03:51:00,
2013-01-23 21:22:00,29.0,15.0,-100.00,SSE,161,16.0,26.0,56,0.00,,,0.00,0.000000,,2013-01-24 04:22:00,
2013-01-23 21:32:00,29.0,15.0,-100.00,SSE,161,16.0,26.0,56,0.00,,,0.00,0.000000,,2013-01-24 04:32:00,
2013-01-23 21:42:00,29.0,15.0,-100.00,SSE,161,16.0,26.0,56,0.00,,,0.00,0.000000,,2013-01-24 04:42:00,
2013-01-23 21:51:00,29.0,15.0,-100.00,SSE,157,18.0,23.0,55,0.00,,,0.00,0.000000,,2013-01-24 04:51:00,
2013-01-23 22:22:00,29.0,15.0,-100.00,SSE,157,18.0,23.0,55,0.00,,,0.00,0.000000,,2013-01-24 05:22:00,
2013-01-23 22:33:00,29.0,15.0,-100.00,SSE,157,18.0,23.0,55,0.00,,,0.00,0.000000,,2013-01-24 05:33:00,
2013-01-23 22:42:00,29.0,15.0,-100.00,SSE,157,18.0,23.0,55,0.00,,,0.00,0.000000,,2013-01-24 05:42:00,
2013-01-23 22:51:00,28.0,14.0,-100.00,SSE,165,17.0,24.0,55,0.00,,,0.00,0.000000,,2013-01-24 05:51:00,
2013-01-23 23:12:00,28.0,14.0,-100.00,SSE,165,17.0,24.0,55,0.00,,,0.00,0.000000,,2013-01-24 06:12:00,
2013-01-23 23:22:00,28.0,14.0,-100.00,SSE,165,17.0,24.0,55,0.00,,,0.00,0.000000,,2013-01-24 06:22:00,
2013-01-23 23:32:00,28.0,14.0,-100.00,SSE,165,17.0,24.0,55,0.00,,,0.00,0.000000,,2013-01-24 06:32:00,
2013-01-23 23:42:00,28.0,14.0,-100.00,SSE,165,17.0,24.0,55,0.00,,,0.00,0.000000,,2013-01-24 06:42:00,
2013-01-23 23:51:00,27.0,13.0,-100.00,SSE,165,20.0,24.0,56,0.00,,,0.00,0.000000,,2013-01-24 06:51:00,